createdAt,value
2023-03-25T00:00:20.706Z,73.66
2023-03-25T00:02:53.495Z,72.86
2023-03-25T00:05:23.323Z,73.62
2023-03-25T00:07:53.670Z,72.84
2023-03-25T00:10:21.923Z,74.45
2023-03-25T00:12:50.051Z,74.17
2023-03-25T00:15:18.383Z,74.98
2023-03-25T00:17:46.569Z,75.79
2023-03-25T00:20:16.118Z,75.56
2023-03-25T00:22:44.680Z,75.28
2023-03-25T00:25:17.582Z,74.51
2023-03-25T00:27:47.787Z,73.97
2023-03-25T00:30:18.402Z,73.45
2023-03-25T00:32:49.992Z,74.24
2023-03-25T00:35:20.629Z,73.61
2023-03-25T00:37:57.191Z,73.56
2023-03-25T00:40:25.788Z,74.45
2023-03-25T00:42:53.980Z,73.66
2023-03-25T00:45:22.314Z,73.59
2023-03-25T00:47:50.643Z,73.19
2023-03-25T00:50:21.613Z,72.26
2023-03-25T00:52:50.113Z,72.58
2023-03-25T00:55:18.675Z,73.71
2023-03-25T00:57:46.897Z,74.37
2023-03-25T01:00:18.745Z,74.45
2023-03-25T01:02:47.188Z,73.63
2023-03-25T01:05:15.361Z,73.27
2023-03-25T01:07:45.446Z,71.96
2023-03-25T01:10:13.567Z,72.20
2023-03-25T01:12:41.741Z,73.42
2023-03-25T01:15:12.970Z,73.81
2023-03-25T01:17:41.216Z,71.71
2023-03-25T01:20:10.948Z,71.62
2023-03-25T01:22:39.159Z,70.87
2023-03-25T01:25:09.613Z,72.04
2023-03-25T01:27:37.706Z,72.21
2023-03-25T01:30:07.093Z,70.59
2023-03-25T01:32:35.248Z,70.20
2023-03-25T01:35:04.894Z,69.86
2023-03-25T01:37:36.498Z,69.69
2023-03-25T01:40:08.485Z,70.08
2023-03-25T01:42:37.986Z,70.08
2023-03-25T01:45:27.732Z,69.46
2023-03-25T01:48:06.109Z,69.94
2023-03-25T01:50:38.090Z,69.18
2023-03-25T01:53:08.617Z,69.88
2023-03-25T01:55:40.086Z,69.50
2023-03-25T01:58:17.173Z,70.07
2023-03-25T02:00:48.176Z,69.94
2023-03-25T02:03:20.761Z,69.71
2023-03-25T02:05:57.825Z,69.15
2023-03-25T02:08:27.101Z,68.35
2023-03-25T02:10:56.061Z,68.31
2023-03-25T02:13:26.362Z,67.73
2023-03-25T02:16:21.359Z,66.84
2023-03-25T02:19:06.588Z,67.70
2023-03-25T02:22:38.630Z,67.42
2023-03-25T02:26:09.011Z,67.59
2023-03-25T02:28:47.323Z,67.47
2023-03-25T02:31:48.305Z,67.27
2023-03-25T02:34:48.766Z,67.59
2023-03-25T02:38:09.119Z,68.42
2023-03-25T02:40:47.171Z,68.25
2023-03-25T02:43:24.300Z,68.90
2023-03-25T02:45:59.131Z,68.87
2023-03-25T02:48:36.314Z,69.34
2023-03-25T02:51:13.382Z,69.89
2023-03-25T02:53:49.574Z,70.38
2023-03-25T02:56:22.827Z,70.07
2023-03-25T02:58:56.418Z,69.15
2023-03-25T03:01:26.979Z,69.33
2023-03-25T03:03:56.324Z,69.13
2023-03-25T03:06:26.240Z,69.72
2023-03-25T03:09:25.567Z,69.96
2023-03-25T03:12:10.750Z,69.01
2023-03-25T03:15:07.090Z,69.52
2023-03-25T03:17:50.234Z,69.36
2023-03-25T03:20:32.674Z,69.62
2023-03-25T03:23:13.282Z,69.71
2023-03-25T03:25:51.682Z,69.87
2023-03-25T03:28:30.016Z,69.59
2023-03-25T03:31:08.541Z,69.64
2023-03-25T03:33:44.261Z,69.31
2023-03-25T03:36:18.790Z,69.63
2023-03-25T03:38:52.266Z,69.19
2023-03-25T03:41:28.056Z,69.67
2023-03-25T03:44:04.704Z,68.99
2023-03-25T03:46:41.930Z,68.68
2023-03-25T03:49:17.829Z,69.26
2023-03-25T03:51:53.525Z,68.96
2023-03-25T03:54:27.629Z,68.83
2023-03-25T03:57:02.830Z,67.21
2023-03-25T03:59:42.835Z,66.08
2023-03-25T04:02:23.610Z,66.44
2023-03-25T04:04:53.885Z,66.24
2023-03-25T04:07:30.756Z,65.61
2023-03-25T04:10:06.771Z,65.72
2023-03-25T04:12:42.566Z,65.54
2023-03-25T04:15:12.073Z,64.45
2023-03-25T04:17:40.414Z,64.53
2023-03-25T04:20:11.889Z,64.34
2023-03-25T04:22:45.856Z,62.64
2023-03-25T04:25:14.895Z,62.63
2023-03-25T04:27:48.738Z,62.17
2023-03-25T04:30:19.120Z,61.88
2023-03-25T04:32:48.514Z,62.08
2023-03-25T04:35:18.624Z,61.56
2023-03-25T04:37:48.987Z,62.01
2023-03-25T04:40:18.949Z,61.68
2023-03-25T04:42:49.347Z,61.10
2023-03-25T04:45:18.037Z,60.61
2023-03-25T04:47:49.477Z,60.60
2023-03-25T04:50:22.419Z,60.65
2023-03-25T04:52:52.990Z,61.15
2023-03-25T04:55:22.082Z,61.14
2023-03-25T04:57:55.051Z,61.19
2023-03-25T05:00:25.988Z,61.37
2023-03-25T05:02:56.857Z,61.64
2023-03-25T05:05:26.676Z,61.70
2023-03-25T05:07:58.098Z,61.67
2023-03-25T05:10:29.510Z,60.82
2023-03-25T05:13:03.304Z,61.47
2023-03-25T05:15:35.527Z,60.80
2023-03-25T05:18:03.705Z,61.24
2023-03-25T05:20:35.029Z,61.16
2023-03-25T05:23:03.363Z,60.61
2023-03-25T05:25:34.293Z,60.80
2023-03-25T05:28:05.799Z,60.77
2023-03-25T05:30:39.066Z,61.09
2023-03-25T05:33:07.458Z,61.19
2023-03-25T05:35:35.639Z,61.71
2023-03-25T05:38:03.822Z,61.16
2023-03-25T05:40:32.761Z,61.34
2023-03-25T05:43:00.941Z,61.20
2023-03-25T05:45:31.116Z,61.24
2023-03-25T05:48:00.555Z,61.04
2023-03-25T05:50:29.386Z,62.22
2023-03-25T05:52:59.906Z,61.20
2023-03-25T05:55:28.896Z,60.44
2023-03-25T05:57:58.735Z,60.59
2023-03-25T06:00:26.980Z,60.84
2023-03-25T06:02:56.507Z,60.83
2023-03-25T06:05:24.714Z,60.30
2023-03-25T06:07:56.266Z,60.00
2023-03-25T06:10:24.932Z,59.22
2023-03-25T06:12:54.177Z,59.37
2023-03-25T06:15:28.726Z,59.18
2023-03-25T06:17:58.913Z,58.82
2023-03-25T06:20:28.043Z,58.60
2023-03-25T06:22:56.250Z,57.38
2023-03-25T06:25:26.579Z,57.05
2023-03-25T06:27:56.029Z,56.47
2023-03-25T06:30:24.315Z,55.98
2023-03-25T06:32:55.766Z,55.92
2023-03-25T06:35:25.517Z,55.40
2023-03-25T06:37:53.643Z,55.73
2023-03-25T06:40:22.355Z,55.90
2023-03-25T06:42:50.499Z,56.84
2023-03-25T06:45:18.870Z,58.22
2023-03-25T06:47:47.095Z,58.57
2023-03-25T06:50:15.351Z,58.35
2023-03-25T06:52:44.834Z,58.48
2023-03-25T06:55:13.654Z,58.74
2023-03-25T06:57:43.344Z,58.40
2023-03-25T07:00:13.144Z,59.18
2023-03-25T07:02:41.759Z,58.36
2023-03-25T07:05:10.576Z,58.29
2023-03-25T07:07:38.766Z,57.96
2023-03-25T07:10:09.812Z,57.28
2023-03-25T07:12:37.964Z,56.63
2023-03-25T07:15:07.865Z,56.40
2023-03-25T07:17:36.160Z,56.72
2023-03-25T07:20:05.638Z,57.14
2023-03-25T07:22:33.973Z,56.88
2023-03-25T07:25:02.160Z,58.95
2023-03-25T07:27:31.639Z,60.38
2023-03-25T07:29:59.816Z,62.67
2023-03-25T07:32:28.044Z,62.47
2023-03-25T07:34:56.416Z,64.38
2023-03-25T07:37:24.514Z,64.55
2023-03-25T07:39:52.619Z,64.31
2023-03-25T07:42:20.955Z,64.12
2023-03-25T07:44:50.393Z,63.14
2023-03-25T07:47:18.576Z,62.85
2023-03-25T07:49:47.691Z,61.73
2023-03-25T07:52:15.841Z,62.07
2023-03-25T07:54:43.959Z,61.31
2023-03-25T07:57:13.153Z,61.27
2023-03-25T07:59:41.485Z,61.79
2023-03-25T08:02:14.572Z,60.66
2023-03-25T08:04:42.762Z,59.98
2023-03-25T08:07:11.824Z,60.07
2023-03-25T08:09:39.953Z,60.94
2023-03-25T08:12:09.631Z,60.21
2023-03-25T08:14:37.716Z,59.67
2023-03-25T08:17:06.583Z,59.43
2023-03-25T08:19:37.031Z,59.20
2023-03-25T08:22:05.343Z,59.35
2023-03-25T08:24:33.859Z,59.72
2023-03-25T08:27:02.581Z,59.89
2023-03-25T08:29:43.707Z,60.81
2023-03-25T08:32:12.008Z,61.41
2023-03-25T08:34:41.625Z,61.38
2023-03-25T08:37:10.030Z,60.50
2023-03-25T08:39:40.085Z,59.84
2023-03-25T08:42:09.153Z,60.55
2023-03-25T08:44:37.258Z,59.71
2023-03-25T08:47:06.071Z,60.76
2023-03-25T08:49:34.256Z,61.49
2023-03-25T08:52:08.241Z,62.82
2023-03-25T08:54:36.500Z,63.99
2023-03-25T08:57:04.739Z,64.73
2023-03-25T08:59:33.002Z,65.90
2023-03-25T09:02:01.701Z,66.20
2023-03-25T09:04:30.783Z,67.59
2023-03-25T09:07:10.470Z,65.95
2023-03-25T09:09:42.302Z,65.54
2023-03-25T09:12:11.184Z,64.23
2023-03-25T09:14:39.685Z,63.00
2023-03-25T09:17:09.986Z,61.74
2023-03-25T09:19:38.386Z,59.67
2023-03-25T09:22:08.179Z,58.25
2023-03-25T09:24:36.376Z,57.69
2023-03-25T09:27:05.980Z,56.77
2023-03-25T09:29:34.166Z,56.06
2023-03-25T09:32:02.497Z,57.09
2023-03-25T09:34:31.024Z,55.99
2023-03-25T09:36:59.438Z,56.39
2023-03-25T09:39:27.819Z,55.59
2023-03-25T09:42:20.436Z,56.08
2023-03-25T09:45:04.787Z,56.67
2023-03-25T09:47:41.342Z,57.05
2023-03-25T09:50:16.829Z,56.60
2023-03-25T09:52:55.477Z,57.15
2023-03-25T09:55:29.624Z,56.67
2023-03-25T09:58:06.127Z,56.56
2023-03-25T10:00:35.812Z,55.40
2023-03-25T10:03:25.803Z,54.24
2023-03-25T10:06:18.713Z,53.94
2023-03-25T10:09:05.417Z,54.02
2023-03-25T10:11:45.042Z,53.42
2023-03-25T10:14:21.215Z,52.71
2023-03-25T10:17:06.372Z,51.00
2023-03-25T10:19:54.371Z,49.38
2023-03-25T10:22:32.625Z,49.02
2023-03-25T10:25:05.934Z,48.64
2023-03-25T10:27:39.778Z,49.43
2023-03-25T10:30:19.579Z,50.52
2023-03-25T10:32:53.715Z,51.09
2023-03-25T10:35:27.113Z,50.12
2023-03-25T10:38:01.113Z,50.58
2023-03-25T10:40:36.735Z,52.40
2023-03-25T10:43:19.722Z,51.93
2023-03-25T10:45:53.034Z,52.42
2023-03-25T10:48:27.705Z,51.99
2023-03-25T10:51:05.907Z,50.59
2023-03-25T10:53:34.169Z,50.36
2023-03-25T10:56:08.515Z,49.91
2023-03-25T10:58:41.171Z,49.81
2023-03-25T11:01:18.042Z,48.98
2023-03-25T11:03:52.158Z,47.74
2023-03-25T11:06:27.122Z,48.29
2023-03-25T11:09:15.359Z,49.02
2023-03-25T11:11:44.332Z,49.07
2023-03-25T11:14:13.445Z,49.57
2023-03-25T11:16:50.176Z,49.81
2023-03-25T11:19:26.368Z,50.09
2023-03-25T11:21:59.486Z,50.18
2023-03-25T11:24:33.415Z,49.11
2023-03-25T11:27:04.045Z,48.64
2023-03-25T11:29:33.084Z,48.73
2023-03-25T11:32:15.954Z,49.24
2023-03-25T11:34:49.291Z,50.20
2023-03-25T11:37:20.712Z,50.14
2023-03-25T11:39:55.242Z,50.47
2023-03-25T11:42:40.306Z,50.00
2023-03-25T11:45:21.547Z,48.94
2023-03-25T11:47:52.424Z,48.22
2023-03-25T11:50:24.688Z,47.96
2023-03-25T11:52:58.526Z,48.19
2023-03-25T11:55:31.661Z,47.18
2023-03-25T11:58:04.307Z,46.45
2023-03-25T12:00:39.598Z,46.72
2023-03-25T12:03:22.651Z,45.78
2023-03-25T12:06:05.271Z,46.31
2023-03-25T12:08:45.038Z,46.22
2023-03-25T12:11:19.683Z,46.67
2023-03-25T12:14:20.826Z,47.69
2023-03-25T12:17:01.609Z,49.96
2023-03-25T12:19:46.037Z,56.01
2023-03-25T12:22:42.399Z,59.64
2023-03-25T12:25:27.375Z,60.20
2023-03-25T12:28:36.451Z,58.72
2023-03-25T12:31:31.171Z,58.09
2023-03-25T12:34:19.412Z,56.25
2023-03-25T12:37:02.638Z,55.83
2023-03-25T12:39:55.067Z,53.16
2023-03-25T12:42:42.260Z,51.28
2023-03-25T12:45:58.784Z,50.59
2023-03-25T12:48:46.097Z,50.85
2023-03-25T12:51:33.772Z,49.66
2023-03-25T12:54:23.923Z,49.74
2023-03-25T12:57:06.281Z,48.70
2023-03-25T13:00:01.141Z,48.51
2023-03-25T13:03:20.392Z,49.33
2023-03-25T13:05:57.331Z,56.96
2023-03-25T13:08:33.578Z,65.25
2023-03-25T13:11:12.733Z,67.26
2023-03-25T13:13:43.874Z,70.50
2023-03-25T13:16:17.988Z,73.65
2023-03-25T13:18:54.391Z,75.43
2023-03-25T13:21:28.334Z,77.04
2023-03-25T13:24:02.774Z,78.41
2023-03-25T13:26:34.051Z,78.30
2023-03-25T13:29:06.847Z,77.90
2023-03-25T13:31:40.224Z,77.63
2023-03-25T13:34:25.153Z,77.58
2023-03-25T13:37:09.880Z,77.46
2023-03-25T13:39:56.423Z,77.60
2023-03-25T13:42:38.739Z,76.67
2023-03-25T13:45:15.557Z,76.79
2023-03-25T13:47:51.809Z,75.29
2023-03-25T13:50:28.027Z,72.85
2023-03-25T13:53:03.879Z,71.24
2023-03-25T13:55:38.056Z,71.48
2023-03-25T13:58:43.318Z,68.99
2023-03-25T14:02:05.570Z,70.83
2023-03-25T14:05:21.672Z,68.60
2023-03-25T14:08:32.437Z,68.99
2023-03-25T14:11:23.475Z,68.87
2023-03-25T14:14:01.176Z,68.73
2023-03-25T14:16:34.927Z,65.53
2023-03-25T14:19:10.732Z,65.97
2023-03-25T14:21:44.499Z,66.56
2023-03-25T14:24:19.406Z,64.48
2023-03-25T14:26:51.935Z,64.92
2023-03-25T14:29:37.697Z,64.41
2023-03-25T14:32:32.182Z,64.76
2023-03-25T14:35:50.527Z,63.40
2023-03-25T14:38:51.510Z,62.03
2023-03-25T14:41:58.320Z,61.50
2023-03-25T14:44:32.745Z,62.58
2023-03-25T14:47:25.513Z,62.58
2023-03-25T14:50:01.430Z,63.15
2023-03-25T14:52:34.388Z,62.80
2023-03-25T14:55:10.931Z,61.44
2023-03-25T14:57:44.650Z,60.58
2023-03-25T15:00:28.962Z,61.95
2023-03-25T15:03:05.058Z,61.14
2023-03-25T15:05:37.112Z,62.23
2023-03-25T15:08:17.564Z,62.42
2023-03-25T15:10:50.963Z,60.78
2023-03-25T15:13:26.244Z,60.61
2023-03-25T15:16:01.782Z,62.55
2023-03-25T15:19:06.518Z,63.34
2023-03-25T15:22:20.544Z,64.52
2023-03-25T15:25:00.536Z,63.88
2023-03-25T15:28:02.065Z,63.69
2023-03-25T15:31:13.813Z,64.24
2023-03-25T15:34:15.312Z,63.66
2023-03-25T15:37:14.133Z,63.15
2023-03-25T15:40:06.371Z,63.89
2023-03-25T15:42:56.953Z,61.92
2023-03-25T15:45:52.869Z,61.21
2023-03-25T15:48:54.873Z,60.04
2023-03-25T15:51:50.009Z,59.81
2023-03-25T15:54:33.300Z,58.51
2023-03-25T15:57:17.013Z,58.96
2023-03-25T15:59:52.581Z,59.83
2023-03-25T16:02:31.981Z,59.03
2023-03-25T16:05:01.068Z,58.29
2023-03-25T16:07:31.155Z,59.06
2023-03-25T16:10:16.565Z,58.64
2023-03-25T16:12:50.582Z,58.45
2023-03-25T16:15:26.661Z,58.27
2023-03-25T16:17:55.883Z,58.17
2023-03-25T16:20:31.806Z,58.34
2023-03-25T16:23:03.147Z,57.64
2023-03-25T16:25:37.884Z,58.81
2023-03-25T16:28:15.539Z,58.26
2023-03-25T16:30:51.347Z,58.06
2023-03-25T16:33:26.783Z,58.58
2023-03-25T16:36:00.415Z,59.64
2023-03-25T16:38:31.395Z,59.53
2023-03-25T16:41:05.143Z,59.50
2023-03-25T16:43:34.889Z,59.47
2023-03-25T16:46:05.691Z,60.34
2023-03-25T16:48:36.615Z,59.07
2023-03-25T16:51:13.965Z,59.81
2023-03-25T16:53:42.968Z,59.95
2023-03-25T16:56:26.180Z,60.04
2023-03-25T16:59:02.596Z,59.74
2023-03-25T17:01:38.184Z,60.38
2023-03-25T17:04:16.777Z,61.08
2023-03-25T17:06:52.912Z,60.84
2023-03-25T17:09:24.756Z,60.35
2023-03-25T17:11:58.650Z,60.10
2023-03-25T17:14:33.543Z,61.05
2023-03-25T17:17:11.594Z,61.17
2023-03-25T17:19:47.208Z,61.29
2023-03-25T17:22:25.244Z,60.89
2023-03-25T17:24:57.241Z,60.45
2023-03-25T17:27:29.020Z,60.61
2023-03-25T17:30:15.318Z,60.83
2023-03-25T17:32:44.705Z,61.27
2023-03-25T17:35:23.596Z,62.18
2023-03-25T17:37:52.317Z,61.71
2023-03-25T17:40:25.906Z,62.26
2023-03-25T17:42:55.332Z,62.19
2023-03-25T17:45:26.560Z,62.82
2023-03-25T17:47:54.708Z,63.38
2023-03-25T17:50:27.403Z,63.89
2023-03-25T17:52:57.441Z,64.27
2023-03-25T17:55:25.596Z,64.88
2023-03-25T17:57:54.707Z,65.25
2023-03-25T18:00:24.224Z,65.16
2023-03-25T18:02:52.373Z,64.53
2023-03-25T18:05:20.579Z,64.75
2023-03-25T18:07:48.689Z,64.53
2023-03-25T18:10:21.646Z,64.95
2023-03-25T18:12:49.808Z,63.57
2023-03-25T18:15:18.070Z,63.75
2023-03-25T18:17:47.520Z,62.85
2023-03-25T18:20:19.415Z,63.17
2023-03-25T18:22:47.533Z,64.43
2023-03-25T18:25:15.810Z,66.49
2023-03-25T18:27:45.627Z,67.87
2023-03-25T18:30:22.498Z,69.47
2023-03-25T18:32:52.102Z,69.96
2023-03-25T18:35:20.391Z,68.66
2023-03-25T18:37:49.100Z,69.19
2023-03-25T18:40:23.304Z,71.01
2023-03-25T18:42:52.591Z,72.18
2023-03-25T18:45:22.096Z,73.02
2023-03-25T18:47:52.818Z,73.50
2023-03-25T18:50:28.878Z,73.77
2023-03-25T18:52:58.743Z,73.11
2023-03-25T18:55:29.975Z,71.36
2023-03-25T18:57:58.587Z,71.50
2023-03-25T19:00:30.974Z,71.26
2023-03-25T19:03:00.472Z,71.14
2023-03-25T19:05:29.129Z,69.43
2023-03-25T19:07:57.382Z,68.59
2023-03-25T19:10:28.722Z,69.14
2023-03-25T19:12:57.189Z,68.83
2023-03-25T19:15:28.361Z,68.08
2023-03-25T19:17:58.297Z,67.62
2023-03-25T19:20:32.294Z,68.54
2023-03-25T19:23:00.951Z,68.85
2023-03-25T19:25:29.999Z,67.96
2023-03-25T19:27:58.163Z,67.00
2023-03-25T19:30:26.671Z,67.31
2023-03-25T19:32:56.970Z,67.20
2023-03-25T19:35:26.741Z,67.32
2023-03-25T19:37:56.219Z,68.15
2023-03-25T19:40:28.104Z,67.54
2023-03-25T19:42:59.221Z,67.45
2023-03-25T19:45:29.987Z,67.11
2023-03-25T19:47:58.983Z,66.63
2023-03-25T19:50:32.164Z,66.63
2023-03-25T19:53:02.789Z,67.45
2023-03-25T19:55:30.934Z,67.97
2023-03-25T19:57:59.030Z,66.99
2023-03-25T20:00:28.931Z,67.52
2023-03-25T20:03:01.650Z,68.43
2023-03-25T20:05:33.421Z,68.41
2023-03-25T20:08:01.677Z,67.61
2023-03-25T20:10:31.553Z,68.30
2023-03-25T20:13:00.833Z,68.67
2023-03-25T20:15:29.097Z,69.12
2023-03-25T20:17:57.724Z,68.09
2023-03-25T20:20:26.228Z,68.31
2023-03-25T20:22:55.938Z,68.37
2023-03-25T20:25:24.731Z,67.52
2023-03-25T20:27:52.787Z,67.52
2023-03-25T20:30:21.541Z,67.52
2023-03-25T20:32:50.036Z,67.45
2023-03-25T20:35:19.721Z,67.08
2023-03-25T20:37:51.905Z,67.01
2023-03-25T20:40:27.732Z,66.55
2023-03-25T20:43:02.284Z,67.03
2023-03-25T20:45:30.537Z,66.48
2023-03-25T20:47:59.783Z,66.30
2023-03-25T20:50:28.262Z,66.08
2023-03-25T20:52:56.441Z,66.38
2023-03-25T20:55:26.206Z,65.60
2023-03-25T20:57:54.357Z,65.98
2023-03-25T21:00:22.492Z,65.75
2023-03-25T21:02:51.097Z,66.29
2023-03-25T21:05:19.507Z,66.26
2023-03-25T21:07:48.212Z,65.61
2023-03-25T21:10:16.813Z,65.28
2023-03-25T21:12:47.152Z,65.10
2023-03-25T21:15:15.899Z,65.50
2023-03-25T21:17:44.350Z,66.25
2023-03-25T21:20:13.619Z,66.07
2023-03-25T21:22:44.380Z,65.91
2023-03-25T21:25:16.887Z,66.13
2023-03-25T21:27:46.644Z,65.98
2023-03-25T21:30:16.156Z,65.93
2023-03-25T21:32:44.685Z,66.23
2023-03-25T21:35:12.907Z,65.95
2023-03-25T21:37:41.065Z,66.84
2023-03-25T21:40:13.709Z,67.39
2023-03-25T21:42:45.670Z,68.40
2023-03-25T21:45:18.229Z,68.43
2023-03-25T21:50:21.738Z,68.44
2023-03-25T21:52:49.914Z,69.27
2023-03-25T21:55:19.466Z,68.45
2023-03-25T21:57:47.833Z,67.76
2023-03-25T22:00:19.679Z,67.71
2023-03-25T22:02:48.943Z,67.36
2023-03-25T22:05:18.109Z,67.09
2023-03-25T22:07:46.621Z,66.46
2023-03-25T22:10:14.814Z,67.11
2023-03-25T22:12:42.944Z,68.16
2023-03-25T22:15:12.466Z,68.75
2023-03-25T22:17:42.006Z,69.42
2023-03-25T22:20:12.074Z,69.38
2023-03-25T22:22:40.414Z,69.52
2023-03-25T22:25:09.992Z,70.14
2023-03-25T22:27:38.502Z,70.46
2023-03-25T22:30:09.773Z,70.08
2023-03-25T22:32:38.004Z,69.92
2023-03-25T22:35:08.766Z,69.05
2023-03-25T22:37:37.703Z,69.22
2023-03-25T22:40:08.519Z,68.77
2023-03-25T22:42:36.734Z,69.64
2023-03-25T22:45:07.246Z,69.18
2023-03-25T22:47:35.576Z,69.67
2023-03-25T22:50:04.413Z,70.08
2023-03-25T22:52:33.931Z,69.83
2023-03-25T22:55:02.218Z,69.83
2023-03-25T22:57:30.661Z,70.13
2023-03-25T22:59:58.762Z,70.54
2023-03-25T23:02:27.283Z,70.81
2023-03-25T23:04:56.861Z,71.52
2023-03-25T23:07:24.953Z,71.35
2023-03-25T23:09:54.452Z,71.67
2023-03-25T23:12:25.634Z,71.03
2023-03-25T23:14:56.936Z,71.37
2023-03-25T23:17:26.392Z,71.62
2023-03-25T23:19:55.102Z,72.04
2023-03-25T23:22:25.046Z,71.83
2023-03-25T23:24:54.776Z,71.94
2023-03-25T23:27:24.822Z,71.58
2023-03-25T23:29:52.907Z,71.67
2023-03-25T23:32:21.230Z,70.97
2023-03-25T23:34:49.447Z,69.78
2023-03-25T23:37:18.261Z,70.55
2023-03-25T23:39:46.472Z,69.63
2023-03-25T23:42:16.179Z,70.41
2023-03-25T23:44:45.239Z,69.99
2023-03-25T23:47:13.501Z,69.06
2023-03-25T23:49:44.157Z,68.21
2023-03-25T23:52:12.320Z,67.81
2023-03-25T23:54:41.445Z,67.73
2023-03-25T23:57:09.757Z,67.19
2023-03-25T23:59:39.294Z,67.33
